Skip Navigation Links Skip Navigation Links

Current Weather

Los Angeles Intl, Los Angeles

For information only: do not use for flight planning or navigation.
Latest weather
Observation time Tuesday, October 19, 2021 12:53 AM PDT
Local time Tuesday, October 19, 2021 2:00 AM PDT
Flight conditions Visual Meteorological Conditions
Winds
Wind direction East (90°)
Wind speed 5 mph
Visibility 10 mi.
Sky condition
Ceiling unlimited
Cloud layer few clouds 5,000 ft.
Temperature 56°F
Dewpoint 50°F
Altimeter 29.99 in.Hg
Derived measurements
Relative humidity 80%
Density altitude 19 ft.
Sea-level pressure 29.98 in.Hg
Climate data
Temperature minimum, last 24 hours 55°F
Temperature maximum, last 24 hours 66°F
Remarks
System requires maintenance.
Automated weather observing station with precipitation discriminator.
METAR KLAX 190753Z 09004KT 10SM FEW050 13/10 A2999 RMK AO2 SLP154 T01330100 401890128 $

Settings

Location code

InnerDrive.Weather 4.0.6770.0 Release CLR 4.0.30319.42000
Copyright ©2018 Inner Drive Technology. All rights reserved. Portions Copyright ©1986-2018 David Braverman.

Find weather

Site navigation


Skip Navigation Links

Place info

Page info

PayPal - The safer, easier way to pay online!

Return home.

Copyright ©2021 Inner Drive Technology. Purveyors of fine, hand-crafted computer software. Page printed 2021-10-19T09:00:17 UTC.